Time;durP1;ratioP1;P1;durP2;ratioP2;P2;SDS_P1;SDS_P2;PMS_P1;PMS_P2;Temp;Humidity;BMP_temperature;BMP_pressure;BME280_temperature;BME280_humidity;BME280_pressure;Samples;Min_cycle;Max_cycle;Signal;HPM_P1;HPM_P2
2022/08/22 00:01:55;;;;;;;7.50;6.67;;;;;;;;;;5077856;28;20513;-77
2022/08/22 00:04:27;;;;;;;8.17;7.47;;;;;;;;;;5076019;28;20446;-76
2022/08/22 00:07:17;;;;;;;7.40;6.90;;;;;;;;;;5079366;28;20450;-77
2022/08/22 00:09:56;;;;;;;7.50;6.90;;;;;;;;;;5074704;28;20831;-77
2022/08/22 00:12:27;;;;;;;9.20;8.30;;;;;;;;;;5074389;28;20944;-77
2022/08/22 00:15:00;;;;;;;9.60;7.57;;;;;;;;;;5073730;28;20478;-77
2022/08/22 00:17:30;;;;;;;9.63;7.60;;;;;;;;;;5074004;28;20448;-77
2022/08/22 00:20:17;;;;;;;8.93;6.53;;;;;;;;;;5074738;28;20456;-77
2022/08/22 00:22:43;;;;;;;8.83;8.10;;;;;;;;;;5089957;28;20990;-77
2022/08/22 00:25:42;;;;;;;7.77;6.73;;;;;;;;;;5072975;28;20539;-77
2022/08/22 00:28:17;;;;;;;7.60;6.83;;;;;;;;;;5029881;28;20888;-77
2022/08/22 00:30:56;;;;;;;7.63;6.90;;;;;;;;;;5065751;28;20474;-77
2022/08/22 00:33:31;;;;;;;6.87;6.20;;;;;;;;;;5076889;28;20443;-77
2022/08/22 00:36:18;;;;;;;8.10;7.40;;;;;;;;;;5094042;28;20487;-77
2022/08/22 00:38:48;;;;;;;7.70;5.90;;;;;;;;;;5077528;28;20513;-77
2022/08/22 00:41:21;;;;;;;7.53;6.93;;;;;;;;;;5076686;28;20504;-77
2022/08/22 00:43:47;;;;;;;9.33;6.80;;;;;;;;;;5101040;28;20446;-77
2022/08/22 00:46:33;;;;;;;8.83;7.43;;;;;;;;;;5105893;28;20460;-75
2022/08/22 00:49:00;;;;;;;7.83;7.03;;;;;;;;;;5088547;28;20881;-75
2022/08/22 00:51:39;;;;;;;7.40;6.70;;;;;;;;;;5093463;28;20830;-75
2022/08/22 00:54:24;;;;;;;8.00;7.20;;;;;;;;;;5095788;28;20428;-75
2022/08/22 00:56:51;;;;;;;9.87;7.00;;;;;;;;;;5078006;28;20447;-75
2022/08/22 00:59:31;;;;;;;9.50;7.17;;;;;;;;;;5097905;28;20463;-75
2022/08/22 01:02:10;;;;;;;9.37;6.80;;;;;;;;;;5069398;28;20436;-75
2022/08/22 01:04:58;;;;;;;10.57;7.47;;;;;;;;;;5060643;28;20458;-75
2022/08/22 01:07:45;;;;;;;7.50;6.80;;;;;;;;;;5074700;28;20467;-76
2022/08/22 01:10:19;;;;;;;7.10;6.47;;;;;;;;;;5057875;28;20463;-76
2022/08/22 01:12:48;;;;;;;7.53;6.83;;;;;;;;;;5085243;28;21404;-76
2022/08/22 01:15:20;;;;;;;6.90;6.17;;;;;;;;;;5059822;28;20469;-76
2022/08/22 01:17:55;;;;;;;13.53;6.77;;;;;;;;;;5074862;28;20793;-76
2022/08/22 01:20:22;;;;;;;7.10;6.33;;;;;;;;;;5092610;28;20496;-76
2022/08/22 01:23:08;;;;;;;6.80;6.20;;;;;;;;;;5091288;28;20892;-76
2022/08/22 01:25:57;;;;;;;7.07;6.47;;;;;;;;;;5091283;28;20480;-76
2022/08/22 01:28:43;;;;;;;8.67;6.13;;;;;;;;;;5071448;28;20521;-76
2022/08/22 01:31:20;;;;;;;6.73;5.60;;;;;;;;;;5058532;28;21172;-76
2022/08/22 01:34:06;;;;;;;6.70;6.10;;;;;;;;;;5051089;28;20459;-76
2022/08/22 01:37:03;;;;;;;7.23;6.60;;;;;;;;;;5083471;28;20420;-76
2022/08/22 01:39:48;;;;;;;5.77;5.27;;;;;;;;;;5051411;28;20468;-76
2022/08/22 01:42:15;;;;;;;7.00;6.40;;;;;;;;;;5070947;28;20428;-76
2022/08/22 01:45:02;;;;;;;7.03;6.33;;;;;;;;;;5074402;28;20973;-76
2022/08/22 01:47:34;;;;;;;7.50;5.90;;;;;;;;;;5091989;28;20459;-76
2022/08/22 01:50:19;;;;;;;6.97;6.37;;;;;;;;;;5058289;28;20575;-76
2022/08/22 01:52:56;;;;;;;8.17;7.37;;;;;;;;;;5090254;28;20530;-76
2022/08/22 01:55:32;;;;;;;8.63;7.00;;;;;;;;;;5092379;28;20473;-76
2022/08/22 01:58:00;;;;;;;7.80;6.40;;;;;;;;;;5090880;28;20460;-76
2022/08/22 02:00:30;;;;;;;7.47;6.70;;;;;;;;;;5069076;28;20464;-76
2022/08/22 02:03:19;;;;;;;9.53;7.00;;;;;;;;;;5059729;28;20421;-76
2022/08/22 02:05:50;;;;;;;7.50;6.90;;;;;;;;;;5070473;28;20543;-76
2022/08/22 02:08:36;;;;;;;9.90;7.10;;;;;;;;;;5087188;28;20986;-76
2022/08/22 02:11:09;;;;;;;9.23;6.73;;;;;;;;;;5054445;28;20428;-76
2022/08/22 02:13:48;;;;;;;8.50;7.73;;;;;;;;;;5083896;28;20788;-76
2022/08/22 02:16:29;;;;;;;7.70;7.10;;;;;;;;;;5070693;28;20953;-76
2022/08/22 02:19:14;;;;;;;6.63;6.03;;;;;;;;;;5070190;28;20480;-76
2022/08/22 02:21:41;;;;;;;6.67;5.90;;;;;;;;;;5074474;28;20444;-76
2022/08/22 02:24:23;;;;;;;7.60;6.90;;;;;;;;;;5071968;28;20436;-76
2022/08/22 02:26:49;;;;;;;8.70;5.90;;;;;;;;;;5087341;28;20461;-76
2022/08/22 02:29:19;;;;;;;7.73;7.03;;;;;;;;;;5079856;28;20490;-76
2022/08/22 02:32:00;;;;;;;7.40;6.80;;;;;;;;;;5058161;28;20471;-76
2022/08/22 02:34:42;;;;;;;9.90;6.30;;;;;;;;;;5077056;28;20999;-76
2022/08/22 02:37:15;;;;;;;6.43;5.93;;;;;;;;;;5086884;28;20474;-76
2022/08/22 02:39:45;;;;;;;8.73;6.90;;;;;;;;;;5071209;28;20448;-76
2022/08/22 02:42:12;;;;;;;9.10;6.27;;;;;;;;;;5053277;28;20440;-76
2022/08/22 02:44:40;;;;;;;6.77;6.17;;;;;;;;;;5073765;28;20458;-76
2022/08/22 02:47:26;;;;;;;13.50;7.60;;;;;;;;;;5073348;28;21032;-76
2022/08/22 02:49:53;;;;;;;7.63;6.53;;;;;;;;;;5090203;28;20853;-76
2022/08/22 02:52:26;;;;;;;6.37;5.77;;;;;;;;;;5091309;28;20484;-76
2022/08/22 02:54:58;;;;;;;9.30;6.17;;;;;;;;;;5083021;28;20451;-76
2022/08/22 02:57:30;;;;;;;5.80;5.40;;;;;;;;;;5056441;28;20437;-76
2022/08/22 03:00:11;;;;;;;9.40;6.43;;;;;;;;;;5069513;28;21079;-76
2022/08/22 03:02:58;;;;;;;7.00;6.30;;;;;;;;;;5064275;28;20421;-76
2022/08/22 03:05:26;;;;;;;8.13;6.13;;;;;;;;;;5082358;28;20453;-75
2022/08/22 03:07:59;;;;;;;6.17;5.67;;;;;;;;;;5066072;28;20453;-74
2022/08/22 03:10:28;;;;;;;8.13;6.37;;;;;;;;;;5068852;28;20440;-75
2022/08/22 03:12:54;;;;;;;6.10;5.40;;;;;;;;;;5083719;28;20447;-75
2022/08/22 03:15:23;;;;;;;6.10;5.60;;;;;;;;;;5077657;28;20461;-75
2022/08/22 03:17:52;;;;;;;9.33;6.03;;;;;;;;;;5094056;28;20853;-76
2022/08/22 03:20:34;;;;;;;9.00;6.20;;;;;;;;;;5096203;28;20444;-76
2022/08/22 03:23:06;;;;;;;6.33;5.83;;;;;;;;;;5088890;28;20478;-75
2022/08/22 03:25:36;;;;;;;6.50;5.90;;;;;;;;;;5083607;28;20451;-75
2022/08/22 03:28:09;;;;;;;5.93;5.40;;;;;;;;;;5084527;28;20465;-75
2022/08/22 03:30:44;;;;;;;6.83;6.30;;;;;;;;;;5077762;28;20523;-74
2022/08/22 03:33:15;;;;;;;6.23;5.73;;;;;;;;;;5090123;28;20476;-75
2022/08/22 03:35:45;;;;;;;7.33;6.73;;;;;;;;;;5081640;28;20456;-76
2022/08/22 03:38:25;;;;;;;5.50;5.10;;;;;;;;;;5080466;28;20474;-76
2022/08/22 03:41:00;;;;;;;7.60;6.80;;;;;;;;;;5097892;28;20436;-76
2022/08/22 03:43:36;;;;;;;6.57;6.07;;;;;;;;;;5094325;28;20485;-76
2022/08/22 03:46:06;;;;;;;10.17;5.77;;;;;;;;;;5076924;28;20486;-76
2022/08/22 03:48:44;;;;;;;7.40;6.80;;;;;;;;;;5057276;28;20466;-76
2022/08/22 03:51:18;;;;;;;6.43;5.80;;;;;;;;;;5056976;28;20432;-76
2022/08/22 03:53:44;;;;;;;6.93;5.90;;;;;;;;;;5073563;28;20482;-76
2022/08/22 03:56:11;;;;;;;5.90;5.40;;;;;;;;;;5070241;28;20432;-76
2022/08/22 03:58:37;;;;;;;6.50;6.03;;;;;;;;;;5056988;28;20869;-75
2022/08/22 04:01:07;;;;;;;6.53;5.93;;;;;;;;;;5081436;28;20463;-76
2022/08/22 04:03:55;;;;;;;7.37;6.63;;;;;;;;;;5086118;28;20496;-76
2022/08/22 04:06:40;;;;;;;6.30;5.80;;;;;;;;;;5058309;28;20437;-76
2022/08/22 04:09:30;;;;;;;11.10;6.10;;;;;;;;;;5070638;28;20567;-76
2022/08/22 04:12:13;;;;;;;6.10;5.70;;;;;;;;;;5019107;28;20444;-76
2022/08/22 04:14:58;;;;;;;13.40;6.63;;;;;;;;;;5066757;28;20455;-75
2022/08/22 04:17:44;;;;;;;6.20;5.47;;;;;;;;;;5086585;28;20493;-76
2022/08/22 04:20:14;;;;;;;7.40;5.60;;;;;;;;;;5056539;28;20565;-76
2022/08/22 04:22:45;;;;;;;7.97;5.83;;;;;;;;;;5073154;28;20421;-76
2022/08/22 04:25:24;;;;;;;6.70;6.20;;;;;;;;;;5074030;28;20822;-76
2022/08/22 04:28:14;;;;;;;6.43;5.83;;;;;;;;;;5072860;28;20825;-76
2022/08/22 04:30:59;;;;;;;7.97;6.60;;;;;;;;;;5072689;28;20854;-76
2022/08/22 04:33:33;;;;;;;7.20;5.90;;;;;;;;;;5073183;28;20424;-76
2022/08/22 04:36:20;;;;;;;6.87;6.27;;;;;;;;;;5089340;28;20428;-76
2022/08/22 04:38:50;;;;;;;7.20;5.13;;;;;;;;;;5052378;28;20461;-75
2022/08/22 04:41:19;;;;;;;8.13;5.83;;;;;;;;;;5068396;28;21011;-75
2022/08/22 04:43:55;;;;;;;7.23;6.60;;;;;;;;;;5066411;28;20502;-76
2022/08/22 04:49:10;;;;;;;7.50;6.77;;;;;;;;;;5036216;28;20520;-90
2022/08/22 04:51:45;;;;;;;9.50;6.40;;;;;;;;;;5019639;28;20454;-90
2022/08/22 04:54:32;;;;;;;7.20;6.50;;;;;;;;;;5000713;28;20440;-90
2022/08/22 04:57:09;;;;;;;8.87;5.53;;;;;;;;;;5043621;28;20463;-90
2022/08/22 04:59:56;;;;;;;6.27;5.77;;;;;;;;;;5047611;28;20461;-91
2022/08/22 05:02:26;;;;;;;6.70;5.93;;;;;;;;;;5021587;28;20481;-90
2022/08/22 05:05:13;;;;;;;6.40;5.80;;;;;;;;;;5054892;28;20547;-91
2022/08/22 05:07:48;;;;;;;6.30;5.80;;;;;;;;;;5043664;28;20564;-91
2022/08/22 05:10:25;;;;;;;6.63;5.97;;;;;;;;;;5024377;28;20418;-90
2022/08/22 05:12:59;;;;;;;7.30;6.60;;;;;;;;;;5012650;28;20445;-90
2022/08/22 05:15:36;;;;;;;6.60;5.90;;;;;;;;;;5015981;28;20442;-91
2022/08/22 05:18:15;;;;;;;7.93;5.43;;;;;;;;;;5036109;28;20433;-91
2022/08/22 05:20:57;;;;;;;5.20;4.77;;;;;;;;;;5032696;28;20433;-90
2022/08/22 05:23:29;;;;;;;7.20;6.50;;;;;;;;;;5018457;28;20513;-90
2022/08/22 05:26:05;;;;;;;6.43;5.83;;;;;;;;;;5028860;28;20472;-90
2022/08/22 05:28:48;;;;;;;6.23;5.73;;;;;;;;;;5015048;28;20462;-90
2022/08/22 05:31:25;;;;;;;6.70;6.10;;;;;;;;;;5033283;28;20441;-91
2022/08/22 05:34:00;;;;;;;6.20;5.67;;;;;;;;;;5044652;28;20474;-90
2022/08/22 05:36:34;;;;;;;5.90;5.40;;;;;;;;;;5031597;28;20467;-90
2022/08/22 05:39:19;;;;;;;6.43;5.93;;;;;;;;;;5029929;28;21059;-90
2022/08/22 05:41:46;;;;;;;5.60;5.10;;;;;;;;;;5025353;28;20448;-90
2022/08/22 05:44:21;;;;;;;8.70;6.60;;;;;;;;;;5036635;28;20552;-90
2022/08/22 05:46:56;;;;;;;6.27;5.77;;;;;;;;;;5028196;28;20457;-90
2022/08/22 05:50:02;;;;;;;7.50;6.80;;;;;;;;;;5035023;28;20466;-90
2022/08/22 05:52:38;;;;;;;8.70;6.10;;;;;;;;;;4970451;28;20456;-91
2022/08/22 05:55:05;;;;;;;8.00;7.30;;;;;;;;;;4974365;28;20421;-91
2022/08/22 05:57:35;;;;;;;8.30;7.07;;;;;;;;;;5009570;28;20880;-90
2022/08/22 06:00:11;;;;;;;7.27;6.67;;;;;;;;;;5018211;28;20446;-90
2022/08/22 06:02:50;;;;;;;10.23;8.80;;;;;;;;;;5053872;28;20909;-90
2022/08/22 06:05:20;;;;;;;7.23;6.63;;;;;;;;;;5053548;28;20476;-90
2022/08/22 06:07:49;;;;;;;7.30;6.80;;;;;;;;;;5022359;28;21035;-90
2022/08/22 06:10:34;;;;;;;8.63;7.70;;;;;;;;;;5053330;28;20438;-91
2022/08/22 06:13:08;;;;;;;7.40;6.83;;;;;;;;;;5025288;28;20438;-90
2022/08/22 06:15:43;;;;;;;8.00;7.30;;;;;;;;;;5005966;28;20447;-90
2022/08/22 06:18:15;;;;;;;7.77;7.00;;;;;;;;;;5007322;28;20454;-91
2022/08/22 06:21:10;;;;;;;7.60;6.73;;;;;;;;;;5030109;28;20430;-91
2022/08/22 06:23:40;;;;;;;8.33;7.20;;;;;;;;;;4990177;28;20944;-91
2022/08/22 06:26:10;;;;;;;8.50;7.90;;;;;;;;;;5024629;28;20474;-90
2022/08/22 06:28:48;;;;;;;7.73;7.03;;;;;;;;;;5028716;28;20462;-90
2022/08/22 06:31:29;;;;;;;7.47;6.57;;;;;;;;;;5029290;28;20836;-91
2022/08/22 06:34:04;;;;;;;7.03;6.40;;;;;;;;;;5027512;28;20461;-91
2022/08/22 06:36:34;;;;;;;11.03;7.60;;;;;;;;;;5046899;28;21000;-91
2022/08/22 06:39:21;;;;;;;7.13;6.43;;;;;;;;;;5011020;28;20533;-91
2022/08/22 06:42:07;;;;;;;7.30;6.70;;;;;;;;;;5022665;28;20449;-91
2022/08/22 06:44:41;;;;;;;7.23;6.63;;;;;;;;;;5021785;28;20449;-91
2022/08/22 06:47:25;;;;;;;7.07;6.40;;;;;;;;;;5034849;28;20496;-91
2022/08/22 06:50:08;;;;;;;7.80;7.10;;;;;;;;;;5026152;28;20457;-91
2022/08/22 06:52:49;;;;;;;7.87;7.27;;;;;;;;;;5024372;28;20438;-91
2022/08/22 06:55:18;;;;;;;7.20;6.60;;;;;;;;;;5024058;28;20432;-91
2022/08/22 06:57:52;;;;;;;11.50;7.93;;;;;;;;;;5035331;28;20462;-90
2022/08/22 07:00:34;;;;;;;8.23;7.60;;;;;;;;;;5034176;28;20433;-91
2022/08/22 07:03:35;;;;;;;8.33;7.20;;;;;;;;;;5037202;28;20456;-91
2022/08/22 07:06:16;;;;;;;8.40;7.50;;;;;;;;;;5045741;28;20952;-90
2022/08/22 07:08:50;;;;;;;8.00;7.40;;;;;;;;;;5036798;28;20504;-91
2022/08/22 07:11:30;;;;;;;8.40;7.70;;;;;;;;;;5014764;28;20441;-91
2022/08/22 07:14:12;;;;;;;7.77;6.90;;;;;;;;;;5034007;28;20929;-90
2022/08/22 07:16:52;;;;;;;8.43;7.73;;;;;;;;;;5017980;28;20461;-90
2022/08/22 07:19:22;;;;;;;8.63;7.83;;;;;;;;;;5030349;28;20441;-91
2022/08/22 07:22:11;;;;;;;8.73;7.93;;;;;;;;;;5036559;28;20430;-91
2022/08/22 07:24:56;;;;;;;8.57;7.90;;;;;;;;;;5046984;28;20460;-91
2022/08/22 07:27:40;;;;;;;9.80;8.90;;;;;;;;;;5044137;28;20433;-91
2022/08/22 07:30:22;;;;;;;7.80;7.10;;;;;;;;;;5065086;28;20434;-93
2022/08/22 07:32:57;;;;;;;9.13;8.10;;;;;;;;;;5052169;28;20437;-93
2022/08/22 07:35:48;;;;;;;8.40;7.60;;;;;;;;;;5045174;28;20958;-91
2022/08/22 07:38:31;;;;;;;9.33;8.30;;;;;;;;;;5006132;28;20445;-91
2022/08/22 07:41:25;;;;;;;8.63;7.93;;;;;;;;;;5023550;28;20461;-91
2022/08/22 07:44:17;;;;;;;8.67;7.83;;;;;;;;;;5014300;28;20430;-90
2022/08/22 07:46:59;;;;;;;9.87;8.87;;;;;;;;;;5012710;28;21013;-90
2022/08/22 07:49:52;;;;;;;8.60;7.53;;;;;;;;;;5061905;28;20464;-91
2022/08/22 07:52:40;;;;;;;8.90;7.97;;;;;;;;;;5017146;28;20541;-90
2022/08/22 07:55:23;;;;;;;8.73;7.83;;;;;;;;;;5047575;28;20540;-91
2022/08/22 07:58:06;;;;;;;7.70;6.90;;;;;;;;;;5040693;28;20967;-90
2022/08/22 08:00:33;;;;;;;11.50;8.30;;;;;;;;;;5034232;28;20450;-91
2022/08/22 08:03:14;;;;;;;7.47;6.80;;;;;;;;;;5032789;28;20811;-91
2022/08/22 08:05:55;;;;;;;9.93;6.37;;;;;;;;;;5042375;28;20476;-91
2022/08/22 08:08:35;;;;;;;8.00;7.20;;;;;;;;;;5039263;28;20472;-91
2022/08/22 08:11:17;;;;;;;7.03;5.93;;;;;;;;;;5035030;28;20459;-91
2022/08/22 08:14:00;;;;;;;6.10;5.50;;;;;;;;;;5035104;28;20429;-90
2022/08/22 08:16:44;;;;;;;10.13;5.50;;;;;;;;;;5032163;28;21010;-91
2022/08/22 08:19:19;;;;;;;7.67;5.40;;;;;;;;;;5011695;28;20587;-91
2022/08/22 08:22:01;;;;;;;3.43;3.20;;;;;;;;;;5011582;28;20441;-91
2022/08/22 08:24:30;;;;;;;6.50;4.10;;;;;;;;;;5030345;28;20478;-91
2022/08/22 08:30:19;;;;;;;3.70;3.23;;;;;;;;;;5036058;28;20845;-91
2022/08/22 08:32:54;;;;;;;5.17;3.00;;;;;;;;;;5025682;28;20933;-91
2022/08/22 08:35:50;;;;;;;3.40;3.10;;;;;;;;;;5027354;28;20430;-91
2022/08/22 08:38:35;;;;;;;4.90;4.07;;;;;;;;;;5010011;28;20429;-91
2022/08/22 08:41:38;;;;;;;5.33;4.10;;;;;;;;;;5023427;28;20438;-91
2022/08/22 08:44:25;;;;;;;4.80;4.00;;;;;;;;;;5009226;28;20446;-91
2022/08/22 08:47:05;;;;;;;4.53;3.07;;;;;;;;;;5025720;28;20469;-90
2022/08/22 08:49:33;;;;;;;3.47;2.57;;;;;;;;;;5017761;28;20492;-91
2022/08/22 08:52:26;;;;;;;4.43;2.97;;;;;;;;;;5029866;28;20436;-91
2022/08/22 08:55:01;;;;;;;6.20;2.73;;;;;;;;;;5024447;28;20452;-91
2022/08/22 08:57:53;;;;;;;2.90;2.20;;;;;;;;;;5041556;28;20786;-91
2022/08/22 09:00:22;;;;;;;2.17;2.07;;;;;;;;;;5028207;28;20449;-91
2022/08/22 09:03:13;;;;;;;9.07;2.53;;;;;;;;;;5023851;28;20800;-91
2022/08/22 09:05:48;;;;;;;6.23;2.40;;;;;;;;;;5017189;28;20470;-91
2022/08/22 09:08:26;;;;;;;9.40;2.43;;;;;;;;;;5017536;28;20544;-91
2022/08/22 09:11:24;;;;;;;5.57;2.47;;;;;;;;;;5027966;28;20534;-91
2022/08/22 09:14:20;;;;;;;4.50;2.47;;;;;;;;;;5021779;28;20434;-90
2022/08/22 09:17:13;;;;;;;2.57;2.23;;;;;;;;;;5037836;28;20465;-90
2022/08/22 09:20:12;;;;;;;5.27;3.07;;;;;;;;;;5026348;28;20556;-91
2022/08/22 09:23:12;;;;;;;4.83;2.90;;;;;;;;;;5031875;28;20874;-90
2022/08/22 09:25:49;;;;;;;3.47;2.90;;;;;;;;;;5021349;28;20435;-91
2022/08/22 09:28:31;;;;;;;4.57;2.83;;;;;;;;;;5043220;28;20433;-91
2022/08/22 09:31:11;;;;;;;5.07;3.40;;;;;;;;;;5042999;28;20532;-91
2022/08/22 09:34:01;;;;;;;6.50;2.93;;;;;;;;;;5019863;28;20469;-91
2022/08/22 09:36:58;;;;;;;2.77;2.57;;;;;;;;;;5037846;28;20563;-92
2022/08/22 09:39:49;;;;;;;3.67;2.50;;;;;;;;;;5012569;28;20454;-91
2022/08/22 09:42:51;;;;;;;3.30;2.60;;;;;;;;;;5013016;28;20502;-91
2022/08/22 09:45:44;;;;;;;2.40;2.20;;;;;;;;;;5044789;28;20444;-91
2022/08/22 09:48:35;;;;;;;2.80;2.60;;;;;;;;;;5012058;28;20818;-91
2022/08/22 09:51:30;;;;;;;4.30;2.50;;;;;;;;;;5011403;28;20434;-91
2022/08/22 09:54:42;;;;;;;3.90;2.63;;;;;;;;;;5031075;28;20441;-91
2022/08/22 09:57:21;;;;;;;3.33;2.27;;;;;;;;;;5027889;28;20458;-90
2022/08/22 10:00:18;;;;;;;4.17;2.47;;;;;;;;;;5027686;28;20433;-91
2022/08/22 10:03:18;;;;;;;4.20;2.50;;;;;;;;;;5028409;28;20442;-91
2022/08/22 10:06:04;;;;;;;2.77;2.20;;;;;;;;;;5024449;28;20461;-91
2022/08/22 10:08:53;;;;;;;3.17;2.63;;;;;;;;;;5037498;28;20524;-92
2022/08/22 10:11:48;;;;;;;3.10;2.80;;;;;;;;;;5032359;28;20437;-91
2022/08/22 10:14:46;;;;;;;5.77;2.50;;;;;;;;;;5049513;28;20458;-91
2022/08/22 10:17:19;;;;;;;2.73;2.53;;;;;;;;;;5041078;28;21049;-91
2022/08/22 10:20:16;;;;;;;2.97;2.67;;;;;;;;;;5013348;28;20508;-91
2022/08/22 10:23:00;;;;;;;5.30;2.37;;;;;;;;;;5029712;28;20448;-91
2022/08/22 10:25:48;;;;;;;2.53;2.33;;;;;;;;;;5012165;28;20536;-91
2022/08/22 10:28:30;;;;;;;2.80;2.60;;;;;;;;;;5037180;28;20441;-91
2022/08/22 10:31:17;;;;;;;4.10;2.10;;;;;;;;;;5017054;28;20476;-91
2022/08/22 10:34:18;;;;;;;2.43;2.23;;;;;;;;;;5016206;28;20534;-92
2022/08/22 10:37:26;;;;;;;4.43;2.47;;;;;;;;;;5050424;28;20465;-91
2022/08/22 10:40:16;;;;;;;3.90;1.97;;;;;;;;;;5024401;28;20417;-91
2022/08/22 10:42:48;;;;;;;4.60;2.37;;;;;;;;;;5005048;28;20869;-92
2022/08/22 10:45:28;;;;;;;4.20;2.83;;;;;;;;;;5010802;28;20450;-92
2022/08/22 10:48:05;;;;;;;6.63;2.50;;;;;;;;;;5013062;28;20438;-91
2022/08/22 10:50:43;;;;;;;3.10;2.20;;;;;;;;;;5044567;28;20552;-91
2022/08/22 10:53:29;;;;;;;5.13;2.83;;;;;;;;;;5021413;28;20441;-91
2022/08/22 10:56:01;;;;;;;3.00;2.70;;;;;;;;;;5037781;28;20525;-94
2022/08/22 10:58:44;;;;;;;2.20;2.00;;;;;;;;;;5033482;28;20430;-93
2022/08/22 11:01:16;;;;;;;3.60;2.07;;;;;;;;;;5050362;28;20432;-92
2022/08/22 11:04:03;;;;;;;4.90;2.70;;;;;;;;;;5021362;28;20518;-91
2022/08/22 11:06:52;;;;;;;3.30;2.70;;;;;;;;;;5042696;28;20461;-92
2022/08/22 11:09:20;;;;;;;2.40;2.23;;;;;;;;;;5005218;28;20473;-92
2022/08/22 11:11:54;;;;;;;3.53;2.30;;;;;;;;;;5022607;28;20472;-90
2022/08/22 11:14:21;;;;;;;4.07;2.40;;;;;;;;;;5040425;28;20467;-92
2022/08/22 11:16:55;;;;;;;5.17;2.73;;;;;;;;;;5033861;28;20457;-93
2022/08/22 11:20:04;;;;;;;2.00;1.80;;;;;;;;;;5033992;28;20441;-92
2022/08/22 11:23:00;;;;;;;2.20;1.97;;;;;;;;;;5025770;28;20437;-91
2022/08/22 11:25:46;;;;;;;3.83;2.73;;;;;;;;;;5022311;28;20444;-91
2022/08/22 11:28:44;;;;;;;3.80;2.60;;;;;;;;;;5039203;28;20442;-91
2022/08/22 11:31:46;;;;;;;3.10;2.50;;;;;;;;;;5037693;28;20481;-89
2022/08/22 11:34:46;;;;;;;7.90;2.70;;;;;;;;;;5056855;23;20495;-71
2022/08/22 11:37:25;;;;;;;3.00;2.37;;;;;;;;;;5049829;28;20479;-71
2022/08/22 11:40:18;;;;;;;5.63;2.87;;;;;;;;;;5044162;28;20457;-71
2022/08/22 11:42:48;;;;;;;5.67;2.83;;;;;;;;;;5024996;28;20428;-71
2022/08/22 11:45:18;;;;;;;3.60;2.70;;;;;;;;;;5024502;28;20437;-72
2022/08/22 11:48:15;;;;;;;6.63;2.20;;;;;;;;;;5035208;28;20458;-72
2022/08/22 11:50:48;;;;;;;3.30;2.90;;;;;;;;;;5037292;28;20559;-72
2022/08/22 11:53:34;;;;;;;5.00;1.90;;;;;;;;;;5037463;28;20571;-72
2022/08/22 11:56:16;;;;;;;4.83;2.10;;;;;;;;;;5011614;28;20426;-72
2022/08/22 11:58:44;;;;;;;2.93;2.30;;;;;;;;;;5036847;28;20433;-72
2022/08/22 12:01:14;;;;;;;2.07;1.87;;;;;;;;;;5041261;28;20430;-72
2022/08/22 12:04:01;;;;;;;4.50;2.73;;;;;;;;;;5042063;28;20459;-72
2022/08/22 12:06:38;;;;;;;3.07;1.90;;;;;;;;;;5042306;28;20544;-72
2022/08/22 12:09:16;;;;;;;5.60;2.27;;;;;;;;;;5034341;28;20550;-72
2022/08/22 12:11:59;;;;;;;4.63;2.20;;;;;;;;;;5020207;28;20487;-72
2022/08/22 12:14:30;;;;;;;4.77;2.50;;;;;;;;;;5026006;28;20435;-72
2022/08/22 12:17:15;;;;;;;3.27;2.40;;;;;;;;;;5036545;28;20457;-72
2022/08/22 12:20:08;;;;;;;6.40;2.60;;;;;;;;;;5025845;28;20426;-72
2022/08/22 12:22:45;;;;;;;2.97;2.53;;;;;;;;;;5035964;28;20956;-71
2022/08/22 12:25:25;;;;;;;2.47;2.27;;;;;;;;;;5054066;28;20505;-72
2022/08/22 12:28:01;;;;;;;4.07;3.10;;;;;;;;;;5035945;28;20506;-72
2022/08/22 12:30:31;;;;;;;6.77;2.67;;;;;;;;;;5004177;28;20462;-72
2022/08/22 12:33:06;;;;;;;2.40;2.20;;;;;;;;;;5030688;28;20940;-72
2022/08/22 12:35:50;;;;;;;3.63;2.70;;;;;;;;;;5015130;28;20464;-72
2022/08/22 12:38:45;;;;;;;3.63;2.43;;;;;;;;;;5017868;28;20458;-72
2022/08/22 12:41:12;;;;;;;2.73;2.53;;;;;;;;;;5035558;28;20424;-72
2022/08/22 12:43:58;;;;;;;3.70;2.83;;;;;;;;;;5053530;28;20837;-72
2022/08/22 12:46:42;;;;;;;3.10;2.30;;;;;;;;;;5019298;28;20588;-72
2022/08/22 12:49:12;;;;;;;4.93;3.03;;;;;;;;;;5053420;28;20457;-72
2022/08/22 12:51:58;;;;;;;2.77;2.53;;;;;;;;;;5035874;28;20472;-73
2022/08/22 12:54:29;;;;;;;2.20;2.00;;;;;;;;;;5018724;28;20426;-72
2022/08/22 12:56:59;;;;;;;5.27;2.43;;;;;;;;;;5011123;28;20489;-72
2022/08/22 12:59:31;;;;;;;5.27;2.40;;;;;;;;;;5019341;28;20441;-72
2022/08/22 13:02:10;;;;;;;2.23;2.03;;;;;;;;;;5035720;28;20469;-73
2022/08/22 13:04:43;;;;;;;4.80;2.80;;;;;;;;;;5052937;28;20430;-72
2022/08/22 13:07:29;;;;;;;2.67;2.47;;;;;;;;;;5050363;28;20503;-72
2022/08/22 13:10:14;;;;;;;3.30;2.73;;;;;;;;;;5027038;28;20472;-72
2022/08/22 13:12:45;;;;;;;3.67;2.80;;;;;;;;;;5019513;28;20496;-72
2022/08/22 13:15:24;;;;;;;5.43;2.80;;;;;;;;;;5034981;28;20414;-72
2022/08/22 13:17:51;;;;;;;2.63;2.33;;;;;;;;;;5034521;28;20457;-72
2022/08/22 13:20:24;;;;;;;3.60;2.60;;;;;;;;;;5018173;28;20500;-72
2022/08/22 13:22:52;;;;;;;3.23;2.70;;;;;;;;;;5034545;28;20483;-72
2022/08/22 13:25:20;;;;;;;2.67;2.33;;;;;;;;;;5035050;28;20428;-72
2022/08/22 13:27:54;;;;;;;5.97;2.30;;;;;;;;;;5034398;28;20460;-72
2022/08/22 13:30:33;;;;;;;4.17;2.57;;;;;;;;;;5034289;28;20472;-72
2022/08/22 13:33:07;;;;;;;4.73;2.73;;;;;;;;;;5015662;28;20446;-72
2022/08/22 13:35:37;;;;;;;5.33;2.80;;;;;;;;;;5018041;28;20443;-72
2022/08/22 13:38:18;;;;;;;3.43;3.13;;;;;;;;;;5034220;28;20453;-72
2022/08/22 13:40:52;;;;;;;2.67;2.47;;;;;;;;;;5052361;28;20425;-72
2022/08/22 13:43:39;;;;;;;2.83;2.50;;;;;;;;;;5034338;28;20418;-72
2022/08/22 13:46:07;;;;;;;3.70;2.80;;;;;;;;;;4994596;28;20468;-72
2022/08/22 13:48:44;;;;;;;3.97;2.40;;;;;;;;;;5017632;28;20438;-72
2022/08/22 13:51:20;;;;;;;3.47;2.60;;;;;;;;;;5033914;28;20465;-72
2022/08/22 13:53:50;;;;;;;5.57;3.00;;;;;;;;;;5033959;28;20475;-72
2022/08/22 13:56:32;;;;;;;3.30;2.37;;;;;;;;;;5002747;28;20457;-72
2022/08/22 13:59:00;;;;;;;4.20;2.97;;;;;;;;;;4998780;28;20801;-72
2022/08/22 14:01:33;;;;;;;2.60;2.13;;;;;;;;;;5033802;28;20494;-73
2022/08/22 14:04:18;;;;;;;2.00;1.77;;;;;;;;;;5033782;28;20456;-72
2022/08/22 14:07:03;;;;;;;3.80;2.23;;;;;;;;;;5023928;28;21080;-72
2022/08/22 14:09:36;;;;;;;2.33;2.13;;;;;;;;;;5033697;28;20469;-72
2022/08/22 14:12:03;;;;;;;3.43;2.23;;;;;;;;;;5033908;28;20469;-72
2022/08/22 14:14:32;;;;;;;3.40;2.00;;;;;;;;;;5033578;28;20461;-72
2022/08/22 14:17:00;;;;;;;3.77;2.53;;;;;;;;;;5017190;28;20515;-72
2022/08/22 14:19:32;;;;;;;3.07;2.20;;;;;;;;;;5033642;28;21063;-72
2022/08/22 14:22:23;;;;;;;2.60;2.20;;;;;;;;;;5020026;28;20533;-72
2022/08/22 14:25:00;;;;;;;3.33;2.07;;;;;;;;;;5051479;28;20494;-72
2022/08/22 14:27:29;;;;;;;2.50;2.30;;;;;;;;;;5033662;28;20815;-72
2022/08/22 14:30:03;;;;;;;2.93;2.63;;;;;;;;;;5016904;28;20555;-72
2022/08/22 14:32:38;;;;;;;6.23;2.93;;;;;;;;;;5051462;28;20431;-72
2022/08/22 14:35:10;;;;;;;2.40;1.80;;;;;;;;;;5033369;28;20683;-72
2022/08/22 14:37:53;;;;;;;4.90;2.20;;;;;;;;;;5018477;28;20856;-71
2022/08/22 14:40:23;;;;;;;2.90;2.70;;;;;;;;;;5033764;28;20852;-72
2022/08/22 14:42:57;;;;;;;3.40;2.50;;;;;;;;;;5033398;28;20970;-72
2022/08/22 14:45:26;;;;;;;2.70;2.40;;;;;;;;;;5051197;28;20430;-72
2022/08/22 14:47:56;;;;;;;4.67;2.30;;;;;;;;;;5016752;28;20793;-72
2022/08/22 14:50:54;;;;;;;3.30;3.00;;;;;;;;;;5019533;28;20548;-72
2022/08/22 14:53:28;;;;;;;6.10;2.70;;;;;;;;;;5008530;28;20443;-72
2022/08/22 14:55:55;;;;;;;2.53;2.33;;;;;;;;;;5029635;28;20414;-72
2022/08/22 14:58:22;;;;;;;3.27;2.80;;;;;;;;;;5032642;28;20461;-72
2022/08/22 15:00:54;;;;;;;2.30;2.10;;;;;;;;;;5032711;28;20933;-72
2022/08/22 15:03:27;;;;;;;5.13;3.30;;;;;;;;;;5033495;28;20437;-72
2022/08/22 15:05:56;;;;;;;4.97;3.00;;;;;;;;;;5032983;28;20471;-72
2022/08/22 15:08:31;;;;;;;3.47;3.00;;;;;;;;;;5021403;28;20449;-72
2022/08/22 15:11:12;;;;;;;5.50;2.77;;;;;;;;;;5016754;28;20473;-72
2022/08/22 15:13:41;;;;;;;2.83;2.63;;;;;;;;;;5033178;28;20421;-72
2022/08/22 15:16:14;;;;;;;2.73;2.53;;;;;;;;;;5016454;28;20430;-72
2022/08/22 15:18:43;;;;;;;3.07;2.67;;;;;;;;;;5016367;28;20469;-72
2022/08/22 15:21:23;;;;;;;2.57;2.37;;;;;;;;;;5032918;28;20830;-72
2022/08/22 15:23:52;;;;;;;3.27;2.70;;;;;;;;;;5050717;28;20428;-72
2022/08/22 15:26:26;;;;;;;5.50;2.70;;;;;;;;;;5032919;28;20491;-72
2022/08/22 15:29:01;;;;;;;3.13;2.83;;;;;;;;;;5033404;28;20444;-72
2022/08/22 15:31:30;;;;;;;6.77;2.90;;;;;;;;;;5033195;28;20453;-72
2022/08/22 15:34:04;;;;;;;6.27;3.47;;;;;;;;;;5024781;28;20495;-72
2022/08/22 15:36:31;;;;;;;3.83;2.67;;;;;;;;;;5046414;28;20476;-72
2022/08/22 15:39:18;;;;;;;4.00;2.90;;;;;;;;;;5016464;28;20434;-72
2022/08/22 15:41:48;;;;;;;5.77;2.80;;;;;;;;;;4993374;28;20483;-72
2022/08/22 15:44:18;;;;;;;3.37;2.30;;;;;;;;;;5032782;28;20959;-72
2022/08/22 15:46:58;;;;;;;4.60;2.50;;;;;;;;;;5032632;28;20845;-72
2022/08/22 15:49:30;;;;;;;2.83;2.60;;;;;;;;;;5032853;28;20420;-71
2022/08/22 15:52:00;;;;;;;3.77;2.67;;;;;;;;;;5032743;28;20963;-72
2022/08/22 15:54:35;;;;;;;11.37;3.40;;;;;;;;;;5032673;28;20422;-72
2022/08/22 15:57:09;;;;;;;3.07;2.77;;;;;;;;;;5032857;28;20950;-72
2022/08/22 15:59:48;;;;;;;3.07;2.77;;;;;;;;;;5016484;28;20429;-74